Time;durP1;ratioP1;P1;durP2;ratioP2;P2;SDS_P1;SDS_P2;PMS_P1;PMS_P2;Temp;Humidity;BMP_temperature;BMP_pressure;BME280_temperature;BME280_humidity;BME280_pressure;Samples;Min_cycle;Max_cycle;Signal;HPM_P1;HPM_P2
2020/12/15 00:01:01;;;;;;;;;45.25;40.00;;;;;;;;5077202;28;9003;-74
2020/12/15 00:03:27;;;;;;;;;45.25;39.00;;;;;;;;5076582;28;8957;-75
2020/12/15 00:05:54;;;;;;;;;48.25;39.00;;;;;;;;5075762;28;8979;-75
2020/12/15 00:08:20;;;;;;;;;37.00;37.00;;;;;;;;5078086;28;8849;-74
2020/12/15 00:10:46;;;;;;;;;45.25;41.50;;;;;;;;5078183;28;8919;-74
2020/12/15 00:13:12;;;;;;;;;43.25;38.75;;;;;;;;5074856;28;8857;-75
2020/12/15 00:15:39;;;;;;;;;40.50;37.75;;;;;;;;5077963;28;8834;-75
2020/12/15 00:18:05;;;;;;;;;55.00;43.00;;;;;;;;5065008;28;9589;-75
2020/12/15 00:20:31;;;;;;;;;42.25;36.25;;;;;;;;5063276;28;8988;-75
2020/12/15 00:23:01;;;;;;;;;48.75;41.00;;;;;;;;5063093;28;8839;-75
2020/12/15 00:25:27;;;;;;;;;39.25;38.50;;;;;;;;5062600;28;8973;-74
2020/12/15 00:27:53;;;;;;;;;41.50;38.75;;;;;;;;5063707;28;8846;-76
2020/12/15 00:30:19;;;;;;;;;41.25;38.50;;;;;;;;5061390;28;8865;-74
2020/12/15 00:32:47;;;;;;;;;40.00;33.75;;;;;;;;5064637;28;8935;-74
2020/12/15 00:35:13;;;;;;;;;42.50;36.25;;;;;;;;5060714;28;8967;-74
2020/12/15 00:37:39;;;;;;;;;35.00;35.00;;;;;;;;5064691;28;8869;-74
2020/12/15 00:40:06;;;;;;;;;40.25;34.75;;;;;;;;5061718;28;9872;-75
2020/12/15 00:42:32;;;;;;;;;30.67;27.67;;;;;;;;5063049;28;8853;-74
2020/12/15 00:44:58;;;;;;;;;46.50;38.50;;;;;;;;5062605;28;8988;-75
2020/12/15 00:47:24;;;;;;;;;33.00;30.50;;;;;;;;5061880;28;8829;-75
2020/12/15 00:49:51;;;;;;;;;41.75;40.00;;;;;;;;5063644;28;8959;-75
2020/12/15 00:52:17;;;;;;;;;44.50;40.50;;;;;;;;5060958;28;8836;-75
2020/12/15 00:54:42;;;;;;;;;49.25;40.75;;;;;;;;5064271;28;8965;-75
2020/12/15 00:57:08;;;;;;;;;44.25;37.75;;;;;;;;5061064;28;8849;-75
2020/12/15 00:59:34;;;;;;;;;47.00;39.00;;;;;;;;5060918;28;8839;-75
2020/12/15 01:02:01;;;;;;;;;44.75;39.00;;;;;;;;5062754;28;9561;-74
2020/12/15 01:04:27;;;;;;;;;37.75;33.25;;;;;;;;5062266;28;8916;-74
2020/12/15 01:06:54;;;;;;;;;37.00;36.00;;;;;;;;5061212;28;8869;-74
2020/12/15 01:09:19;;;;;;;;;47.75;39.25;;;;;;;;5062991;28;8840;-75
2020/12/15 01:11:45;;;;;;;;;47.75;40.25;;;;;;;;5060458;28;8964;-75
2020/12/15 01:14:11;;;;;;;;;45.75;41.50;;;;;;;;5060285;28;8845;-75
2020/12/15 01:16:37;;;;;;;;;51.75;42.50;;;;;;;;5063386;28;8951;-75
2020/12/15 01:19:03;;;;;;;;;48.25;42.75;;;;;;;;5061343;28;8888;-75
2020/12/15 01:21:29;;;;;;;;;57.75;47.50;;;;;;;;5061874;28;8864;-74
2020/12/15 01:23:57;;;;;;;;;56.00;47.00;;;;;;;;5062115;28;8969;-75
2020/12/15 01:26:23;;;;;;;;;58.75;46.50;;;;;;;;5061229;28;8845;-76
2020/12/15 01:28:49;;;;;;;;;45.00;39.25;;;;;;;;5061948;28;8867;-73
2020/12/15 01:31:15;;;;;;;;;57.00;43.25;;;;;;;;5060134;28;8860;-75
2020/12/15 01:33:41;;;;;;;;;59.75;46.75;;;;;;;;5063458;28;8997;-75
2020/12/15 01:36:06;;;;;;;;;55.25;46.00;;;;;;;;5060548;28;8877;-74
2020/12/15 01:38:32;;;;;;;;;61.00;50.75;;;;;;;;5062243;28;8881;-74
2020/12/15 01:40:59;;;;;;;;;58.00;48.50;;;;;;;;5061763;28;9581;-74
2020/12/15 01:43:25;;;;;;;;;51.75;42.75;;;;;;;;5061239;28;8964;-74
2020/12/15 01:45:51;;;;;;;;;57.25;43.00;;;;;;;;5062295;28;8854;-74
2020/12/15 01:48:17;;;;;;;;;49.75;43.50;;;;;;;;5060015;28;8849;-73
2020/12/15 01:50:43;;;;;;;;;42.25;39.00;;;;;;;;5063129;28;8819;-74
2020/12/15 01:53:10;;;;;;;;;53.25;43.50;;;;;;;;5059723;28;8869;-73
2020/12/15 01:55:36;;;;;;;;;41.25;38.00;;;;;;;;5062644;28;8874;-74
2020/12/15 01:58:04;;;;;;;;;32.50;30.00;;;;;;;;5060525;28;8957;-73
2020/12/15 02:00:30;;;;;;;;;55.00;42.00;;;;;;;;5061143;28;8996;-73
2020/12/15 02:02:56;;;;;;;;;47.00;40.50;;;;;;;;5061686;28;8871;-73
2020/12/15 02:05:22;;;;;;;;;40.75;32.75;;;;;;;;5060704;28;8866;-72
2020/12/15 02:07:48;;;;;;;;;45.50;38.75;;;;;;;;5061586;28;8846;-72
2020/12/15 02:10:14;;;;;;;;;41.50;39.25;;;;;;;;5061048;28;8844;-73
2020/12/15 02:12:40;;;;;;;;;42.25;39.25;;;;;;;;5060733;28;8915;-73
2020/12/15 02:15:10;;;;;;;;;45.75;41.75;;;;;;;;5061874;28;8878;-74
2020/12/15 02:17:36;;;;;;;;;38.00;33.00;;;;;;;;5058445;28;8985;-74
2020/12/15 02:20:04;;;;;;;;;42.50;37.50;;;;;;;;5059990;28;8953;-74
2020/12/15 02:22:31;;;;;;;;;37.50;36.50;;;;;;;;5061225;28;8881;-72
2020/12/15 02:24:57;;;;;;;;;38.25;29.00;;;;;;;;5060692;28;8839;-73
2020/12/15 02:27:23;;;;;;;;;41.75;39.25;;;;;;;;5059913;28;8863;-73
2020/12/15 02:29:49;;;;;;;;;41.00;37.00;;;;;;;;5062050;28;8874;-74
2020/12/15 02:32:15;;;;;;;;;35.25;33.50;;;;;;;;5058735;28;8857;-74
2020/12/15 02:34:41;;;;;;;;;39.25;34.50;;;;;;;;5062429;28;9013;-77
2020/12/15 02:37:07;;;;;;;;;41.25;38.00;;;;;;;;5059170;28;8865;-76
2020/12/15 02:39:34;;;;;;;;;39.00;34.00;;;;;;;;5061428;28;8837;-74
2020/12/15 02:42:00;;;;;;;;;34.75;30.00;;;;;;;;5059959;28;8859;-76
2020/12/15 02:44:26;;;;;;;;;26.50;25.75;;;;;;;;5060322;28;8849;-76
2020/12/15 02:46:52;;;;;;;;;42.75;35.50;;;;;;;;5060977;28;8969;-76
2020/12/15 02:49:18;;;;;;;;;36.00;31.00;;;;;;;;5059397;28;8853;-76
2020/12/15 02:51:45;;;;;;;;;33.00;33.00;;;;;;;;5062291;28;8859;-77
2020/12/15 02:54:11;;;;;;;;;32.25;30.50;;;;;;;;5058932;28;8884;-75
2020/12/15 02:56:38;;;;;;;;;37.50;32.25;;;;;;;;5061854;28;8957;-76
2020/12/15 02:59:04;;;;;;;;;35.50;30.00;;;;;;;;5059477;28;9024;-77
2020/12/15 03:01:30;;;;;;;;;32.75;28.00;;;;;;;;5060567;28;8975;-76
2020/12/15 03:03:56;;;;;;;;;29.50;27.00;;;;;;;;5060168;28;8869;-74
2020/12/15 03:06:22;;;;;;;;;31.25;29.00;;;;;;;;5059256;28;9546;-75
2020/12/15 03:08:48;;;;;;;;;28.25;26.50;;;;;;;;5061208;28;9554;-75
2020/12/15 03:11:14;;;;;;;;;24.50;24.00;;;;;;;;5058559;28;8853;-76
2020/12/15 03:13:40;;;;;;;;;27.75;22.75;;;;;;;;5061948;28;8850;-76
2020/12/15 03:16:06;;;;;;;;;30.50;23.25;;;;;;;;5058866;28;8944;-77
2020/12/15 03:18:32;;;;;;;;;28.00;25.00;;;;;;;;5061255;28;8872;-76
2020/12/15 03:21:01;;;;;;;;;25.00;24.25;;;;;;;;5059396;28;8838;-75
2020/12/15 03:23:27;;;;;;;;;26.50;25.25;;;;;;;;5060170;28;8943;-75
2020/12/15 03:25:53;;;;;;;;;29.00;26.25;;;;;;;;5060672;28;8819;-76
2020/12/15 03:28:20;;;;;;;;;26.75;21.50;;;;;;;;5059134;28;9674;-75
2020/12/15 03:30:47;;;;;;;;;28.00;25.25;;;;;;;;5061454;28;8833;-75
2020/12/15 03:33:13;;;;;;;;;28.00;28.00;;;;;;;;5058374;28;8910;-76
2020/12/15 03:35:39;;;;;;;;;25.00;22.75;;;;;;;;5058754;28;8970;-76
2020/12/15 03:38:04;;;;;;;;;28.75;25.25;;;;;;;;5061203;28;8875;-75
2020/12/15 03:40:30;;;;;;;;;30.75;29.25;;;;;;;;5059392;28;8997;-75
2020/12/15 03:42:56;;;;;;;;;35.75;31.75;;;;;;;;5060138;28;9542;-77
2020/12/15 03:45:22;;;;;;;;;39.75;36.75;;;;;;;;5060197;28;8866;-75
2020/12/15 03:47:49;;;;;;;;;34.00;32.75;;;;;;;;5058731;28;8829;-77
2020/12/15 03:50:15;;;;;;;;;38.75;34.75;;;;;;;;5057333;28;8952;-75
2020/12/15 03:52:41;;;;;;;;;50.25;38.50;;;;;;;;5063107;28;8859;-76
2020/12/15 03:55:07;;;;;;;;;47.50;40.25;;;;;;;;5062236;28;8980;-77
2020/12/15 03:57:33;;;;;;;;;52.25;43.00;;;;;;;;5064518;28;8876;-75
2020/12/15 03:59:59;;;;;;;;;51.50;43.75;;;;;;;;5063258;28;8850;-76
2020/12/15 04:02:25;;;;;;;;;48.00;44.00;;;;;;;;5065999;28;8835;-77
2020/12/15 04:04:52;;;;;;;;;52.75;43.50;;;;;;;;5062655;28;8864;-75
2020/12/15 04:07:18;;;;;;;;;52.25;43.25;;;;;;;;5064312;28;8960;-75
2020/12/15 04:09:44;;;;;;;;;45.75;41.75;;;;;;;;5062156;28;8842;-77
2020/12/15 04:12:11;;;;;;;;;41.75;38.00;;;;;;;;5064782;28;8981;-77
2020/12/15 04:14:37;;;;;;;;;47.50;42.00;;;;;;;;5062110;28;8826;-76
2020/12/15 04:17:03;;;;;;;;;45.50;42.25;;;;;;;;5064037;28;8887;-75
2020/12/15 04:19:29;;;;;;;;;30.25;28.25;;;;;;;;5062546;28;8965;-76
2020/12/15 04:21:56;;;;;;;;;39.50;36.50;;;;;;;;5062937;28;8971;-76
2020/12/15 04:24:22;;;;;;;;;34.00;34.00;;;;;;;;5064144;28;9578;-77
2020/12/15 04:26:48;;;;;;;;;49.00;39.25;;;;;;;;5061790;28;8868;-77
2020/12/15 04:29:14;;;;;;;;;42.50;36.75;;;;;;;;5065010;28;8849;-76
2020/12/15 04:31:40;;;;;;;;;36.75;31.75;;;;;;;;5061374;28;8838;-76
2020/12/15 04:34:05;;;;;;;;;39.50;34.00;;;;;;;;5064063;28;8866;-77
2020/12/15 04:36:31;;;;;;;;;41.00;35.00;;;;;;;;5062233;28;8932;-76
2020/12/15 04:38:58;;;;;;;;;39.00;32.25;;;;;;;;5062766;28;8868;-76
2020/12/15 04:41:24;;;;;;;;;32.25;28.75;;;;;;;;5062658;28;9673;-75
2020/12/15 04:43:51;;;;;;;;;26.25;24.50;;;;;;;;5061932;28;9704;-77
2020/12/15 04:46:21;;;;;;;;;29.50;27.50;;;;;;;;5064095;28;8826;-76
2020/12/15 04:48:48;;;;;;;;;32.50;29.25;;;;;;;;5061196;28;8954;-76
2020/12/15 04:51:17;;;;;;;;;35.50;29.50;;;;;;;;5064962;28;9704;-76
2020/12/15 04:53:44;;;;;;;;;32.75;28.25;;;;;;;;5060891;28;8849;-76
2020/12/15 04:56:22;;;;;;;;;28.00;26.00;;;;;;;;5061048;28;8829;-76
2020/12/15 04:58:48;;;;;;;;;28.00;27.50;;;;;;;;5061299;28;8967;-75
2020/12/15 05:01:14;;;;;;;;;30.50;26.00;;;;;;;;5064075;28;8965;-76
2020/12/15 05:03:43;;;;;;;;;32.00;27.50;;;;;;;;5056330;28;8855;-76
2020/12/15 05:06:15;;;;;;;;;28.00;28.00;;;;;;;;5063885;28;9577;-75
2020/12/15 05:08:47;;;;;;;;;26.25;22.50;;;;;;;;5060698;28;8889;-75
2020/12/15 05:11:13;;;;;;;;;27.50;25.00;;;;;;;;5060707;28;8967;-74
2020/12/15 05:13:39;;;;;;;;;32.00;29.75;;;;;;;;5063792;28;8933;-75
2020/12/15 05:16:05;;;;;;;;;29.25;28.50;;;;;;;;5061140;28;8940;-76
2020/12/15 05:18:31;;;;;;;;;34.00;30.25;;;;;;;;5064521;28;8843;-76
2020/12/15 05:20:57;;;;;;;;;29.00;25.50;;;;;;;;5062496;28;8853;-77
2020/12/15 05:23:23;;;;;;;;;23.25;23.00;;;;;;;;5062255;28;8851;-76
2020/12/15 05:25:49;;;;;;;;;30.75;24.00;;;;;;;;5061093;28;8834;-76
2020/12/15 05:28:16;;;;;;;;;29.75;27.50;;;;;;;;5063368;28;8842;-75
2020/12/15 05:30:42;;;;;;;;;28.00;26.25;;;;;;;;5060214;28;8821;-76
2020/12/15 05:33:13;;;;;;;;;35.25;32.00;;;;;;;;5063606;28;8877;-76
2020/12/15 05:35:39;;;;;;;;;23.25;20.75;;;;;;;;5064110;28;8842;-74
2020/12/15 05:38:06;;;;;;;;;36.25;25.25;;;;;;;;5062984;28;8843;-74
2020/12/15 05:40:32;;;;;;;;;28.50;24.50;;;;;;;;5060868;28;9582;-75
2020/12/15 05:42:59;;;;;;;;;34.25;31.75;;;;;;;;5061995;28;8845;-74
2020/12/15 05:45:27;;;;;;;;;29.25;29.00;;;;;;;;5061525;28;8965;-77
2020/12/15 05:48:08;;;;;;;;;34.50;28.25;;;;;;;;5061016;28;8956;-78
2020/12/15 05:50:35;;;;;;;;;33.25;30.00;;;;;;;;5060176;28;9573;-76
2020/12/15 05:53:01;;;;;;;;;26.00;24.25;;;;;;;;5061918;28;9588;-75
2020/12/15 05:55:27;;;;;;;;;29.50;29.50;;;;;;;;5061367;28;9566;-75
2020/12/15 05:57:54;;;;;;;;;36.75;33.75;;;;;;;;5060923;28;9794;-75
2020/12/15 06:00:20;;;;;;;;;33.75;31.25;;;;;;;;5062010;28;8949;-74
2020/12/15 06:02:57;;;;;;;;;35.50;30.25;;;;;;;;5059779;28;8960;-76
2020/12/15 06:05:24;;;;;;;;;35.00;30.00;;;;;;;;5061842;28;8835;-75
2020/12/15 06:07:53;;;;;;;;;30.50;29.00;;;;;;;;5060196;28;8837;-77
2020/12/15 06:10:20;;;;;;;;;34.00;29.50;;;;;;;;5062146;28;9007;-77
2020/12/15 06:12:47;;;;;;;;;31.75;29.25;;;;;;;;5059310;28;8853;-76
2020/12/15 06:15:13;;;;;;;;;33.50;27.75;;;;;;;;5062368;28;8881;-76
2020/12/15 06:17:39;;;;;;;;;29.75;28.50;;;;;;;;5059679;28;8833;-75
2020/12/15 06:20:08;;;;;;;;;37.00;35.50;;;;;;;;5061962;28;8839;-77
2020/12/15 06:22:35;;;;;;;;;36.75;32.75;;;;;;;;5059892;28;8822;-76
2020/12/15 06:25:01;;;;;;;;;38.00;35.75;;;;;;;;5061577;28;8837;-77
2020/12/15 06:27:32;;;;;;;;;17.25;11.75;;;;;;;;5058461;28;8926;-78
2020/12/15 06:29:58;;;;;;;;;38.25;35.75;;;;;;;;5060869;28;8839;-78
2020/12/15 06:32:24;;;;;;;;;26.75;24.50;;;;;;;;5060223;28;8849;-76
2020/12/15 06:34:50;;;;;;;;;46.50;40.50;;;;;;;;5061800;28;8908;-78
2020/12/15 06:37:17;;;;;;;;;41.25;35.50;;;;;;;;5059054;28;9553;-80
2020/12/15 06:39:52;;;;;;;;;45.50;40.50;;;;;;;;5058896;28;8853;-77
2020/12/15 06:42:18;;;;;;;;;43.50;41.75;;;;;;;;5057699;28;8960;-76
2020/12/15 06:44:44;;;;;;;;;48.25;42.50;;;;;;;;5061036;28;8862;-75
2020/12/15 06:47:10;;;;;;;;;40.25;38.00;;;;;;;;5053335;28;8949;-76
2020/12/15 06:49:37;;;;;;;;;50.25;43.25;;;;;;;;5058781;28;8853;-78
2020/12/15 06:52:04;;;;;;;;;49.00;43.25;;;;;;;;4978295;28;12017;-78
2020/12/15 06:54:33;;;;;;;;;45.75;40.25;;;;;;;;5059153;28;8983;-75
2020/12/15 06:57:02;;;;;;;;;41.25;39.25;;;;;;;;5060204;28;8842;-77
2020/12/15 06:59:35;;;;;;;;;46.00;39.25;;;;;;;;5058958;28;8857;-74
2020/12/15 07:02:09;;;;;;;;;39.75;37.75;;;;;;;;5059661;28;8941;-76
2020/12/15 07:04:40;;;;;;;;;41.00;40.00;;;;;;;;5059607;28;8859;-82
2020/12/15 07:07:07;;;;;;;;;45.75;39.50;;;;;;;;5057768;28;8818;-74
2020/12/15 07:09:34;;;;;;;;;49.25;42.00;;;;;;;;5060126;28;8845;-76
2020/12/15 07:12:02;;;;;;;;;41.75;38.50;;;;;;;;5060945;28;8878;-79
2020/12/15 07:14:28;;;;;;;;;40.50;38.25;;;;;;;;5059505;28;8910;-75
2020/12/15 07:16:55;;;;;;;;;40.25;38.25;;;;;;;;5061658;28;8841;-77
2020/12/15 07:19:22;;;;;;;;;44.25;40.25;;;;;;;;5060340;28;8943;-75
2020/12/15 07:21:48;;;;;;;;;57.25;46.75;;;;;;;;5055806;28;8896;-75
2020/12/15 07:24:14;;;;;;;;;54.25;44.00;;;;;;;;5060243;28;8863;-77
2020/12/15 07:26:42;;;;;;;;;54.00;45.00;;;;;;;;5057926;28;8957;-79
2020/12/15 07:29:08;;;;;;;;;54.50;44.75;;;;;;;;5063006;28;8966;-77
2020/12/15 07:31:34;;;;;;;;;53.00;42.50;;;;;;;;5062763;28;10067;-76
2020/12/15 07:34:10;;;;;;;;;46.25;40.50;;;;;;;;5056628;28;8830;-78
2020/12/15 07:36:39;;;;;;;;;48.00;41.25;;;;;;;;5060712;28;8872;-78
2020/12/15 07:39:05;;;;;;;;;53.50;43.00;;;;;;;;5059914;28;8876;-77
2020/12/15 07:41:36;;;;;;;;;41.00;38.75;;;;;;;;5062248;28;9792;-76
2020/12/15 07:44:03;;;;;;;;;55.00;43.75;;;;;;;;5062150;28;8862;-75
2020/12/15 07:46:29;;;;;;;;;48.25;41.25;;;;;;;;5062053;28;8845;-80
2020/12/15 07:48:56;;;;;;;;;55.25;42.25;;;;;;;;5063800;28;8887;-78
2020/12/15 07:51:22;;;;;;;;;47.00;42.25;;;;;;;;5060839;28;8980;-80
2020/12/15 07:53:51;;;;;;;;;50.25;43.00;;;;;;;;5063992;28;8857;-81
2020/12/15 07:56:18;;;;;;;;;52.75;45.25;;;;;;;;5064468;28;8838;-78
2020/12/15 07:58:45;;;;;;;;;48.25;43.25;;;;;;;;5060863;28;8830;-81
2020/12/15 08:01:13;;;;;;;;;45.25;42.00;;;;;;;;5062224;28;8848;-79
2020/12/15 08:03:39;;;;;;;;;53.75;42.75;;;;;;;;5059088;28;8986;-84
2020/12/15 08:06:09;;;;;;;;;53.00;39.00;;;;;;;;5056418;28;8998;-78
2020/12/15 08:08:35;;;;;;;;;43.25;40.50;;;;;;;;5061266;28;8845;-74
2020/12/15 08:11:01;;;;;;;;;52.75;43.75;;;;;;;;5061869;28;8977;-72
2020/12/15 08:13:27;;;;;;;;;61.00;47.00;;;;;;;;5061536;28;8849;-74
2020/12/15 08:15:53;;;;;;;;;56.00;45.00;;;;;;;;5062479;28;8843;-76
2020/12/15 08:18:21;;;;;;;;;40.75;37.50;;;;;;;;5062171;28;8846;-76
2020/12/15 08:20:47;;;;;;;;;46.75;42.50;;;;;;;;5063159;28;9720;-75
2020/12/15 08:23:14;;;;;;;;;42.00;36.50;;;;;;;;5061372;28;8907;-75
2020/12/15 08:25:43;;;;;;;;;39.25;38.25;;;;;;;;5049493;28;9655;-76
2020/12/15 08:28:09;;;;;;;;;45.50;40.50;;;;;;;;5062276;28;8831;-74
2020/12/15 08:30:35;;;;;;;;;43.00;42.00;;;;;;;;5065216;28;8859;-75
2020/12/15 08:33:01;;;;;;;;;47.25;42.00;;;;;;;;5061993;28;8833;-76
2020/12/15 08:35:28;;;;;;;;;47.00;40.75;;;;;;;;5059799;28;8842;-76
2020/12/15 08:37:56;;;;;;;;;49.75;43.25;;;;;;;;5057951;28;8977;-75
2020/12/15 08:40:22;;;;;;;;;41.25;39.75;;;;;;;;5059116;28;8988;-75
2020/12/15 08:42:48;;;;;;;;;45.50;42.75;;;;;;;;5058312;28;8851;-74
2020/12/15 08:45:14;;;;;;;;;48.50;40.50;;;;;;;;5061160;28;8835;-74
2020/12/15 08:47:44;;;;;;;;;47.00;39.25;;;;;;;;5059512;28;8837;-75
2020/12/15 08:50:11;;;;;;;;;47.50;40.75;;;;;;;;5054729;28;8845;-74
2020/12/15 08:52:37;;;;;;;;;49.00;41.25;;;;;;;;5063093;28;8940;-76
2020/12/15 08:55:04;;;;;;;;;49.25;41.75;;;;;;;;5060023;28;8954;-75
2020/12/15 08:57:30;;;;;;;;;48.75;44.50;;;;;;;;5058988;28;8833;-74
2020/12/15 08:59:56;;;;;;;;;27.25;26.75;;;;;;;;5061690;28;8841;-75
2020/12/15 09:02:22;;;;;;;;;36.25;29.50;;;;;;;;5061356;28;9022;-74
2020/12/15 09:04:48;;;;;;;;;48.25;42.50;;;;;;;;5059527;28;8895;-73
2020/12/15 09:07:17;;;;;;;;;48.75;42.50;;;;;;;;5056659;28;9007;-73
2020/12/15 09:09:44;;;;;;;;;50.75;45.25;;;;;;;;5056165;28;8833;-75
2020/12/15 09:12:10;;;;;;;;;55.50;45.75;;;;;;;;5063823;28;8966;-75
2020/12/15 09:14:36;;;;;;;;;47.25;43.75;;;;;;;;5061311;28;8996;-74
2020/12/15 09:17:02;;;;;;;;;48.25;42.00;;;;;;;;5062878;28;8867;-77
2020/12/15 09:19:28;;;;;;;;;50.50;45.00;;;;;;;;5061859;28;8969;-74
2020/12/15 09:21:55;;;;;;;;;57.25;46.00;;;;;;;;5061533;28;8857;-74
2020/12/15 09:24:21;;;;;;;;;54.00;42.75;;;;;;;;5061198;28;8972;-75
2020/12/15 09:26:48;;;;;;;;;45.50;39.00;;;;;;;;5063588;28;8874;-78
2020/12/15 09:29:14;;;;;;;;;51.75;43.00;;;;;;;;5060432;28;9660;-74
2020/12/15 09:31:40;;;;;;;;;58.00;45.25;;;;;;;;5063202;28;8958;-74
2020/12/15 09:34:06;;;;;;;;;53.25;46.25;;;;;;;;5060536;28;8810;-74
2020/12/15 09:36:32;;;;;;;;;49.50;42.75;;;;;;;;5062213;28;8973;-73
2020/12/15 09:38:58;;;;;;;;;53.50;45.50;;;;;;;;5061933;28;8931;-73
2020/12/15 09:41:24;;;;;;;;;56.50;44.25;;;;;;;;5060457;28;8865;-73
2020/12/15 09:43:51;;;;;;;;;59.50;46.75;;;;;;;;5063229;28;8835;-74
2020/12/15 09:46:17;;;;;;;;;61.75;47.25;;;;;;;;5059605;28;9727;-72
2020/12/15 09:48:43;;;;;;;;;57.50;46.75;;;;;;;;5059566;28;8981;-73
2020/12/15 09:51:11;;;;;;;;;56.50;44.75;;;;;;;;5058478;28;8861;-72
2020/12/15 09:53:37;;;;;;;;;58.75;48.00;;;;;;;;5061137;28;8981;-73
2020/12/15 09:56:05;;;;;;;;;59.00;48.50;;;;;;;;5062603;28;8995;-73
2020/12/15 09:58:31;;;;;;;;;57.00;48.00;;;;;;;;5060811;28;8948;-72
2020/12/15 10:01:00;;;;;;;;;58.25;49.25;;;;;;;;5059163;28;8869;-72
2020/12/15 10:03:26;;;;;;;;;57.00;48.00;;;;;;;;5060169;28;8976;-72
2020/12/15 10:05:52;;;;;;;;;56.75;45.00;;;;;;;;5061749;28;8877;-74
2020/12/15 10:08:18;;;;;;;;;55.50;46.75;;;;;;;;5059107;28;8834;-73
2020/12/15 10:10:43;;;;;;;;;13.75;11.75;;;;;;;;5061619;28;8854;-73
2020/12/15 10:13:10;;;;;;;;;54.00;45.75;;;;;;;;5059760;28;9545;-73
2020/12/15 10:15:36;;;;;;;;;58.50;47.50;;;;;;;;5061647;28;8849;-73
2020/12/15 10:18:04;;;;;;;;;55.25;46.25;;;;;;;;5060502;28;8920;-73
2020/12/15 10:20:30;;;;;;;;;61.00;50.00;;;;;;;;5059135;28;8973;-74
2020/12/15 10:22:55;;;;;;;;;62.25;47.25;;;;;;;;5061382;28;8823;-73
2020/12/15 10:25:22;;;;;;;;;59.75;50.00;;;;;;;;5059612;28;8935;-73
2020/12/15 10:27:47;;;;;;;;;28.25;24.25;;;;;;;;5062390;28;8861;-72
2020/12/15 10:30:13;;;;;;;;;51.25;44.25;;;;;;;;5059047;28;8991;-73
2020/12/15 10:32:39;;;;;;;;;56.75;46.00;;;;;;;;5061839;28;8869;-73
2020/12/15 10:35:06;;;;;;;;;57.25;46.75;;;;;;;;5059617;28;8846;-73
2020/12/15 10:37:32;;;;;;;;;47.00;41.00;;;;;;;;5060829;28;9054;-73
2020/12/15 10:39:59;;;;;;;;;55.75;45.50;;;;;;;;5061050;28;9531;-73
2020/12/15 10:42:26;;;;;;;;;53.75;44.00;;;;;;;;5059505;28;8849;-77
2020/12/15 10:44:52;;;;;;;;;55.25;44.75;;;;;;;;5062230;28;8893;-75
2020/12/15 10:47:18;;;;;;;;;53.67;45.00;;;;;;;;5058731;28;8846;-74
2020/12/15 10:49:44;;;;;;;;;53.67;45.00;;;;;;;;5059042;28;8830;-74
2020/12/15 10:52:10;;;;;;;;;56.50;45.25;;;;;;;;5061915;28;8846;-74
2020/12/15 10:54:36;;;;;;;;;49.00;44.00;;;;;;;;5059506;28;9043;-75
2020/12/15 10:57:02;;;;;;;;;49.67;44.00;;;;;;;;5060619;28;8850;-74
2020/12/15 10:59:29;;;;;;;;;52.67;44.67;;;;;;;;5062284;28;8835;-77
2020/12/15 11:01:55;;;;;;;;;53.50;46.25;;;;;;;;5060739;28;8959;-75
2020/12/15 11:04:21;;;;;;;;;54.00;44.00;;;;;;;;5058770;28;8961;-74
2020/12/15 11:06:47;;;;;;;;;58.00;44.33;;;;;;;;5062136;28;8835;-76
2020/12/15 11:09:14;;;;;;;;;50.00;43.00;;;;;;;;5058923;28;8845;-76
2020/12/15 11:11:45;;;;;;;;;44.33;39.00;;;;;;;;5060606;28;8961;-75
2020/12/15 11:14:11;;;;;;;;;51.33;43.00;;;;;;;;5057593;28;9042;-75
2020/12/15 11:16:37;;;;;;;;;53.33;42.33;;;;;;;;5058968;28;9400;-75
2020/12/15 11:19:03;;;;;;;;;47.67;41.00;;;;;;;;5057090;28;8865;-76
2020/12/15 11:21:29;;;;;;;;;52.00;42.00;;;;;;;;5056515;28;9576;-74
2020/12/15 11:23:55;;;;;;;;;54.00;43.33;;;;;;;;5055803;28;8854;-76
2020/12/15 11:26:22;;;;;;;;;54.33;42.67;;;;;;;;5057092;28;8827;-76
2020/12/15 11:28:47;;;;;;;;;51.33;43.00;;;;;;;;5056114;28;8958;-74
2020/12/15 11:31:14;;;;;;;;;53.00;44.33;;;;;;;;5058717;28;8855;-74
2020/12/15 11:33:42;;;;;;;;;53.67;43.67;;;;;;;;5058222;28;8857;-75
2020/12/15 11:36:08;;;;;;;;;57.33;44.00;;;;;;;;5054494;28;9609;-73
2020/12/15 11:38:34;;;;;;;;;54.00;43.33;;;;;;;;5052988;28;8865;-75
2020/12/15 11:41:00;;;;;;;;;50.67;43.00;;;;;;;;5055533;28;8867;-73
2020/12/15 11:43:26;;;;;;;;;56.00;46.00;;;;;;;;5058580;28;8873;-75
2020/12/15 11:45:52;;;;;;;;;49.67;40.33;;;;;;;;5066042;28;8977;-74
2020/12/15 11:48:18;;;;;;;;;55.00;43.00;;;;;;;;5060944;28;8853;-73
2020/12/15 11:50:44;;;;;;;;;55.67;44.67;;;;;;;;5061470;28;8962;-82
2020/12/15 11:53:10;;;;;;;;;48.33;40.33;;;;;;;;5059158;28;9542;-76
2020/12/15 11:55:36;;;;;;;;;53.33;44.00;;;;;;;;5059282;28;8942;-74
2020/12/15 11:58:03;;;;;;;;;57.00;47.00;;;;;;;;5059695;28;8831;-75
2020/12/15 12:00:29;;;;;;;;;55.00;46.67;;;;;;;;5058931;28;8902;-74
2020/12/15 12:02:55;;;;;;;;;59.67;48.00;;;;;;;;5060883;28;8850;-74
2020/12/15 12:05:21;;;;;;;;;54.67;45.33;;;;;;;;5057499;28;8845;-75
2020/12/15 12:07:47;;;;;;;;;54.33;43.33;;;;;;;;5061365;28;8977;-76
2020/12/15 12:10:13;;;;;;;;;54.67;43.33;;;;;;;;5058202;28;8972;-75
2020/12/15 12:12:40;;;;;;;;;59.00;47.00;;;;;;;;5060346;28;8976;-75
2020/12/15 12:15:06;;;;;;;;;56.00;47.00;;;;;;;;5062839;28;8830;-75
2020/12/15 12:17:32;;;;;;;;;56.00;45.33;;;;;;;;5062925;28;8871;-75
2020/12/15 12:19:58;;;;;;;;;58.67;47.00;;;;;;;;5063948;28;8969;-75
2020/12/15 12:22:24;;;;;;;;;58.33;47.33;;;;;;;;5061874;28;9683;-75
2020/12/15 12:24:51;;;;;;;;;57.33;46.67;;;;;;;;5064837;28;8884;-75
2020/12/15 12:27:17;;;;;;;;;57.67;47.67;;;;;;;;5061001;28;8969;-75
2020/12/15 12:29:43;;;;;;;;;59.00;48.00;;;;;;;;5064525;28;8855;-74
2020/12/15 12:32:08;;;;;;;;;54.67;47.00;;;;;;;;5062397;28;8865;-77
2020/12/15 12:34:35;;;;;;;;;57.00;47.00;;;;;;;;5062689;28;8856;-75
2020/12/15 12:37:01;;;;;;;;;52.00;46.00;;;;;;;;5063186;28;9092;-76
2020/12/15 12:39:30;;;;;;;;;57.67;46.67;;;;;;;;5061851;28;8837;-75
2020/12/15 12:41:56;;;;;;;;;53.00;45.33;;;;;;;;5063706;28;8838;-76
2020/12/15 12:44:22;;;;;;;;;57.33;47.00;;;;;;;;5061057;28;9786;-75
2020/12/15 12:46:48;;;;;;;;;57.00;47.00;;;;;;;;5064633;28;8953;-74
2020/12/15 12:49:14;;;;;;;;;63.00;47.67;;;;;;;;5060628;28;8845;-75
2020/12/15 12:51:41;;;;;;;;;56.67;47.67;;;;;;;;5063865;28;8973;-75
2020/12/15 12:54:11;;;;;;;;;57.00;47.00;;;;;;;;5061793;28;8846;-75
2020/12/15 12:56:39;;;;;;;;;53.67;43.33;;;;;;;;5063160;28;8952;-74
2020/12/15 12:59:05;;;;;;;;;55.33;43.33;;;;;;;;5062098;28;8949;-74
2020/12/15 13:01:31;;;;;;;;;56.67;48.00;;;;;;;;5061971;28;8853;-75
2020/12/15 13:03:57;;;;;;;;;56.67;44.00;;;;;;;;5063214;28;8847;-75
2020/12/15 13:06:23;;;;;;;;;55.00;42.33;;;;;;;;5060736;28;9661;-75
2020/12/15 13:08:49;;;;;;;;;48.33;43.00;;;;;;;;5063981;28;8823;-75
2020/12/15 13:11:15;;;;;;;;;60.00;49.33;;;;;;;;5060311;28;9705;-75
2020/12/15 13:13:41;;;;;;;;;55.33;46.67;;;;;;;;5063705;28;8839;-74
2020/12/15 13:18:50;;;;;;;;;62.33;47.67;;;;;;;;5119436;27;13693;-68
2020/12/15 13:21:16;;;;;;;;;57.67;46.67;;;;;;;;5095066;28;8963;-69
2020/12/15 13:23:43;;;;;;;;;59.00;50.00;;;;;;;;5095784;28;8944;-68
2020/12/15 13:26:11;;;;;;;;;61.33;48.67;;;;;;;;5098014;28;8841;-68
2020/12/15 21:26:00;;;;;;;;;81.50;66.00;;;;;;;;5115638;27;13658;-71
2020/12/15 21:28:26;;;;;;;;;83.75;65.50;;;;;;;;5101844;28;8851;-73
2020/12/15 21:30:52;;;;;;;;;81.25;64.75;;;;;;;;5103106;28;8947;-72
2020/12/15 21:33:17;;;;;;;;;84.75;65.75;;;;;;;;5099060;28;8891;-72
2020/12/15 21:35:43;;;;;;;;;84.25;66.25;;;;;;;;5099585;28;8864;-72
2020/12/15 21:38:09;;;;;;;;;87.50;66.75;;;;;;;;5101579;28;8848;-71
2020/12/15 21:40:35;;;;;;;;;87.25;67.50;;;;;;;;5098348;28;8862;-72
2020/12/15 21:43:02;;;;;;;;;88.50;69.00;;;;;;;;5101032;28;8833;-72
2020/12/15 21:45:30;;;;;;;;;86.00;68.75;;;;;;;;5100635;28;9578;-73
2020/12/15 21:47:56;;;;;;;;;87.75;72.25;;;;;;;;5100711;28;8851;-73
2020/12/15 21:50:22;;;;;;;;;85.25;68.75;;;;;;;;5099449;28;8896;-73
2020/12/15 21:52:48;;;;;;;;;82.75;65.25;;;;;;;;5103059;28;8963;-72
2020/12/15 21:55:14;;;;;;;;;85.25;64.50;;;;;;;;5102427;28;8856;-73
2020/12/15 21:57:42;;;;;;;;;76.75;58.50;;;;;;;;5103548;28;8955;-72
2020/12/15 22:00:09;;;;;;;;;78.50;61.25;;;;;;;;5102627;28;8848;-73
2020/12/15 22:02:35;;;;;;;;;71.25;57.25;;;;;;;;5102892;28;8951;-71
2020/12/15 22:05:01;;;;;;;;;70.75;56.75;;;;;;;;5098590;28;8902;-73
2020/12/15 22:07:27;;;;;;;;;70.00;56.75;;;;;;;;5100378;28;8855;-73
2020/12/15 22:09:53;;;;;;;;;76.25;59.50;;;;;;;;5103009;28;8967;-72
2020/12/15 22:12:18;;;;;;;;;69.00;56.75;;;;;;;;5102150;28;8832;-72
2020/12/15 22:14:44;;;;;;;;;70.25;55.00;;;;;;;;5102686;28;8832;-72
2020/12/15 22:17:11;;;;;;;;;66.25;54.50;;;;;;;;5099100;28;8959;-72
2020/12/15 22:19:37;;;;;;;;;67.00;53.25;;;;;;;;5102653;28;8836;-73
2020/12/15 22:22:03;;;;;;;;;62.00;51.50;;;;;;;;5102468;28;9013;-73
2020/12/15 22:24:29;;;;;;;;;60.50;52.00;;;;;;;;5100429;28;8858;-73
2020/12/15 22:26:55;;;;;;;;;69.25;54.50;;;;;;;;5102402;28;8994;-73